Disclaimer

Please do not use the information listed here in-flight or in-navigation, as they are not provided to us by the airports but are provided by volunteers, so they might be outdated.

Search


Regions


Airport information page

Radio informations:
ESCONDIDO TWR - 118.9 MHz

Airport informations:
Latitude: 15° 52' 36.70" N
Longitude: 097° 05' 20.82" W
Elevation: 294 feet - 90 meters
Operating hours: Remarks
Operating agency: Civil government, landing fees and diplomatic clearance may be required
Timezone: UTC-6(-5DT) - First Sunday in April to the last Saturday in October
Fuel: Unknown fuel type or whether there is any fuel.

Runway information:
09/27 - 7546 x 148 feet< - >2300 x 45 meters

Recent METARs:
MMPS 131445Z 00000KT 10SM SCT070 28/22 A3004 RMK 8/060 HZY
MMPS 131445Z 00000KT 10SM SCT070 28/22 A3004 RMK 8/060 HZY
MMPS 131445Z 00000KT 10SM SCT070 28/22 A3004 RMK 8/060 HZY

Airport on the map: